createdAt,value
2023-03-18T00:02:02.884Z,18.42
2023-03-18T00:04:30.677Z,20.88
2023-03-18T00:06:58.905Z,22.50
2023-03-18T00:09:27.529Z,19.05
2023-03-18T00:11:56.725Z,17.88
2023-03-18T00:14:24.551Z,20.10
2023-03-18T00:16:52.112Z,20.70
2023-03-18T00:19:20.182Z,20.70
2023-03-18T00:21:47.825Z,20.30
2023-03-18T00:24:15.556Z,18.73
2023-03-18T00:26:44.142Z,21.70
2023-03-18T00:29:11.560Z,19.00
2023-03-18T00:31:39.198Z,21.17
2023-03-18T00:34:08.270Z,18.65
2023-03-18T00:36:37.482Z,18.90
2023-03-18T00:39:05.179Z,18.05
2023-03-18T00:41:34.553Z,20.85
2023-03-18T00:44:02.079Z,18.27
2023-03-18T00:46:31.645Z,20.67
2023-03-18T00:49:02.827Z,20.00
2023-03-18T00:51:34.495Z,21.33
2023-03-18T00:54:07.243Z,20.42
2023-03-18T00:56:37.765Z,22.55
2023-03-18T00:59:07.300Z,22.98
2023-03-18T01:01:36.792Z,23.05
2023-03-18T01:04:04.610Z,27.88
2023-03-18T01:06:36.543Z,28.58
2023-03-18T01:09:05.868Z,21.05
2023-03-18T01:11:34.320Z,19.38
2023-03-18T01:14:02.381Z,23.58
2023-03-18T01:16:30.374Z,24.52
2023-03-18T01:18:58.487Z,22.52
2023-03-18T01:21:26.194Z,24.05
2023-03-18T01:24:00.669Z,21.88
2023-03-18T01:26:29.826Z,23.98
2023-03-18T01:28:59.962Z,19.58
2023-03-18T01:31:29.965Z,19.30
2023-03-18T01:34:02.450Z,19.92
2023-03-18T01:36:39.119Z,23.95
2023-03-18T01:39:10.244Z,18.70
2023-03-18T01:41:38.461Z,19.95
2023-03-18T01:44:14.102Z,17.30
2023-03-18T01:46:46.686Z,19.05
2023-03-18T01:49:21.194Z,17.13
2023-03-18T01:51:57.779Z,20.73
2023-03-18T01:54:28.885Z,20.15
2023-03-18T01:56:57.538Z,20.58
2023-03-18T01:59:28.586Z,21.83
2023-03-18T02:02:07.562Z,21.13
2023-03-18T02:04:41.356Z,21.27
2023-03-18T02:07:42.791Z,20.25
2023-03-18T02:10:14.577Z,22.85
2023-03-18T02:12:46.437Z,18.83
2023-03-18T02:15:23.654Z,16.27
2023-03-18T02:18:03.382Z,17.30
2023-03-18T02:20:41.124Z,14.82
2023-03-18T02:23:42.609Z,16.08
2023-03-18T02:26:43.989Z,17.58
2023-03-18T02:29:14.796Z,18.25
2023-03-18T02:31:52.780Z,17.75
2023-03-18T02:34:27.878Z,16.10
2023-03-18T02:36:57.781Z,14.70
2023-03-18T02:39:26.039Z,16.85
2023-03-18T02:41:56.655Z,16.33
2023-03-18T02:44:24.731Z,16.27
2023-03-18T02:47:16.629Z,15.00
2023-03-18T02:49:44.739Z,13.98
2023-03-18T02:52:13.625Z,16.45
2023-03-18T02:54:41.373Z,17.50
2023-03-18T02:57:09.128Z,18.55
2023-03-18T02:59:38.450Z,15.10
2023-03-18T03:02:06.525Z,16.00
2023-03-18T03:04:34.137Z,17.10
2023-03-18T03:07:02.344Z,14.93
2023-03-18T03:09:37.335Z,19.50
2023-03-18T03:12:06.709Z,17.50
2023-03-18T03:14:37.668Z,17.55
2023-03-18T03:17:05.235Z,18.90
2023-03-18T03:19:33.315Z,15.32
2023-03-18T03:22:02.254Z,16.30
2023-03-18T03:24:30.405Z,15.80
2023-03-18T03:26:57.995Z,15.10
2023-03-18T03:29:25.561Z,14.68
2023-03-18T03:31:53.154Z,15.98
2023-03-18T03:34:20.726Z,14.35
2023-03-18T03:36:48.279Z,14.77
2023-03-18T03:39:34.122Z,15.85
2023-03-18T03:42:01.534Z,16.85
2023-03-18T03:44:29.449Z,17.40
2023-03-18T03:46:57.002Z,14.70
2023-03-18T03:49:25.142Z,14.68
2023-03-18T03:51:52.629Z,14.55
2023-03-18T03:54:21.784Z,12.65
2023-03-18T03:56:49.294Z,14.15
2023-03-18T03:59:17.412Z,17.77
2023-03-18T04:02:03.315Z,16.30
2023-03-18T04:04:31.352Z,13.77
2023-03-18T04:06:59.190Z,14.90
2023-03-18T04:09:27.093Z,14.50
2023-03-18T04:11:54.981Z,15.15
2023-03-18T04:14:22.892Z,13.48
2023-03-18T04:16:50.891Z,15.35
2023-03-18T04:19:19.090Z,15.48
2023-03-18T04:21:46.668Z,14.48
2023-03-18T04:24:14.197Z,18.17
2023-03-18T04:26:41.703Z,14.52
2023-03-18T04:29:09.843Z,18.00
2023-03-18T04:31:39.489Z,17.15
2023-03-18T04:34:08.737Z,16.08
2023-03-18T04:36:36.676Z,16.20
2023-03-18T04:39:04.957Z,15.15
2023-03-18T04:41:33.027Z,15.75
2023-03-18T04:44:04.250Z,17.08
2023-03-18T04:46:40.615Z,17.05
2023-03-18T04:49:10.649Z,14.23
2023-03-18T04:51:38.860Z,14.07
2023-03-18T04:54:12.421Z,15.50
2023-03-18T04:56:40.787Z,15.70
2023-03-18T04:59:09.345Z,17.20
2023-03-18T05:01:36.944Z,18.05
2023-03-18T05:04:04.824Z,15.80
2023-03-18T05:06:41.973Z,14.63
2023-03-18T05:09:13.383Z,14.30
2023-03-18T05:11:42.095Z,16.42
2023-03-18T05:16:57.784Z,15.93
2023-03-18T05:19:26.322Z,15.82
2023-03-18T05:22:01.572Z,17.70
2023-03-18T05:24:30.272Z,19.80
2023-03-18T05:26:58.060Z,15.98
2023-03-18T05:29:57.077Z,16.90
2023-03-18T05:32:32.372Z,18.00
2023-03-18T05:35:04.186Z,14.73
2023-03-18T05:37:34.276Z,14.98
2023-03-18T05:40:12.744Z,13.15
2023-03-18T05:42:55.457Z,15.55
2023-03-18T05:45:32.357Z,15.73
2023-03-18T05:48:00.439Z,16.63
2023-03-18T05:50:31.368Z,17.35
2023-03-18T05:53:05.676Z,16.20
2023-03-18T05:55:38.323Z,14.82
2023-03-18T05:58:12.042Z,17.67
2023-03-18T06:00:44.982Z,15.65
2023-03-18T06:03:15.636Z,16.27
2023-03-18T06:05:49.874Z,15.30
2023-03-18T06:08:20.120Z,16.60
2023-03-18T06:10:48.640Z,15.85
2023-03-18T06:13:16.680Z,17.35
2023-03-18T06:15:48.467Z,18.20
2023-03-18T06:18:17.255Z,16.73
2023-03-18T06:20:47.622Z,16.65
2023-03-18T06:23:20.879Z,16.50
2023-03-18T06:25:49.659Z,16.48
2023-03-18T06:28:21.466Z,16.35
2023-03-18T06:30:50.095Z,18.60
2023-03-18T06:33:21.866Z,16.65
2023-03-18T06:35:50.432Z,17.05
2023-03-18T06:38:18.708Z,16.20
2023-03-18T06:40:48.862Z,17.73
2023-03-18T06:43:26.378Z,16.38
2023-03-18T06:45:59.596Z,13.85
2023-03-18T06:48:32.773Z,15.45
2023-03-18T06:51:04.072Z,14.52
2023-03-18T06:53:38.800Z,17.30
2023-03-18T06:56:07.908Z,14.90
2023-03-18T06:58:46.808Z,15.70
2023-03-18T07:01:16.699Z,14.00
2023-03-18T07:03:46.770Z,18.05
2023-03-18T07:06:15.487Z,16.55
2023-03-18T07:08:45.216Z,14.93
2023-03-18T07:11:12.992Z,15.70
2023-03-18T07:13:42.895Z,18.73
2023-03-18T07:16:43.738Z,15.00
2023-03-18T07:23:19.090Z,16.42
2023-03-18T07:25:48.679Z,15.15
2023-03-18T07:28:18.418Z,15.60
2023-03-18T07:30:47.219Z,15.35
2023-03-18T07:33:15.838Z,12.45
2023-03-18T07:35:56.138Z,15.35
2023-03-18T07:38:24.229Z,13.25
2023-03-18T07:41:05.716Z,13.25
2023-03-18T07:43:41.380Z,14.23
2023-03-18T07:47:01.638Z,14.00
2023-03-18T07:49:35.066Z,11.63
2023-03-18T07:52:07.264Z,12.85
2023-03-18T07:54:37.162Z,13.07
2023-03-18T07:57:13.913Z,12.23
2023-03-18T07:59:41.752Z,11.95
2023-03-18T08:02:14.054Z,11.82
2023-03-18T08:04:44.259Z,13.30
2023-03-18T08:07:11.950Z,13.57
2023-03-18T08:10:31.539Z,12.38
2023-03-18T08:13:24.324Z,12.30
2023-03-18T08:20:52.996Z,12.68
2023-03-18T08:23:23.965Z,11.55
2023-03-18T08:26:18.502Z,11.88
2023-03-18T08:29:48.972Z,13.20
2023-03-18T08:41:55.569Z,11.55
2023-03-18T08:44:30.345Z,11.60
2023-03-18T08:47:56.128Z,13.88
2023-03-18T08:50:40.304Z,10.57
2023-03-18T08:57:11.218Z,14.15
2023-03-18T09:04:30.575Z,13.90
2023-03-18T09:07:00.947Z,14.25
2023-03-18T09:09:43.243Z,14.82
2023-03-18T09:12:14.315Z,13.75
2023-03-18T09:17:49.089Z,12.02
2023-03-18T09:20:30.278Z,13.02
2023-03-18T09:22:57.902Z,14.25
2023-03-18T09:25:35.607Z,13.07
2023-03-18T09:29:04.078Z,12.18
2023-03-18T09:31:44.521Z,11.73
2023-03-18T09:34:18.909Z,11.50
2023-03-18T09:36:52.965Z,11.77
2023-03-18T09:39:24.982Z,11.25
2023-03-18T09:42:17.257Z,11.45
2023-03-18T09:44:45.412Z,13.93
2023-03-18T09:50:57.403Z,12.15
2023-03-18T09:53:58.996Z,13.07
2023-03-18T10:00:59.073Z,14.80
2023-03-18T10:03:46.921Z,12.05
2023-03-18T10:07:09.777Z,14.30
2023-03-18T10:23:56.911Z,14.07
2023-03-18T10:29:50.989Z,13.82
2023-03-18T10:32:54.900Z,15.15
2023-03-18T10:35:34.484Z,14.27
2023-03-18T10:38:05.696Z,14.68
2023-03-18T10:40:39.974Z,13.30
2023-03-18T10:43:19.712Z,16.83
2023-03-18T10:45:51.325Z,17.70
2023-03-18T10:48:36.270Z,13.88
2023-03-18T10:51:27.443Z,15.57
2023-03-18T10:54:23.081Z,17.67
2023-03-18T10:57:05.473Z,15.73
2023-03-18T10:59:35.400Z,15.75
2023-03-18T11:02:13.220Z,15.13
2023-03-18T11:05:23.260Z,14.95
2023-03-18T11:08:03.723Z,15.88
2023-03-18T11:10:47.129Z,13.98
2023-03-18T11:13:18.638Z,18.27
2023-03-18T11:15:51.634Z,15.95
2023-03-18T11:18:24.804Z,19.58
2023-03-18T11:21:04.775Z,17.20
2023-03-18T11:23:48.830Z,14.57
2023-03-18T11:26:27.583Z,16.80
2023-03-18T11:29:02.983Z,16.75
2023-03-18T11:33:59.220Z,16.40
2023-03-18T11:36:28.263Z,16.35
2023-03-18T11:39:04.229Z,16.60
2023-03-18T11:41:31.970Z,18.73
2023-03-18T11:44:00.984Z,15.90
2023-03-18T11:46:39.848Z,17.38
2023-03-18T11:49:13.269Z,18.75
2023-03-18T11:51:59.773Z,19.55
2023-03-18T11:54:45.990Z,16.52
2023-03-18T11:57:13.501Z,15.50
2023-03-18T12:00:17.777Z,20.13
2023-03-18T12:03:01.158Z,17.10
2023-03-18T12:05:48.312Z,18.75
2023-03-18T12:08:40.054Z,18.25
2023-03-18T12:11:26.682Z,17.38
2023-03-18T12:14:02.904Z,19.23
2023-03-18T12:16:30.672Z,19.70
2023-03-18T12:19:16.762Z,19.95
2023-03-18T12:22:06.956Z,18.08
2023-03-18T12:24:47.056Z,19.98
2023-03-18T12:27:45.198Z,19.50
2023-03-18T12:30:33.535Z,19.40
2023-03-18T12:33:17.384Z,21.85
2023-03-18T12:36:03.001Z,16.85
2023-03-18T12:38:50.994Z,17.02
2023-03-18T12:41:42.671Z,17.92
2023-03-18T12:44:19.958Z,17.95
2023-03-18T12:47:40.768Z,18.58
2023-03-18T12:50:32.662Z,18.05
2023-03-18T12:53:03.598Z,18.85
2023-03-18T12:55:34.999Z,19.23
2023-03-18T12:58:11.951Z,19.10
2023-03-18T13:00:42.479Z,18.27
2023-03-18T13:03:13.597Z,22.52
2023-03-18T13:05:52.552Z,19.17
2023-03-18T13:08:56.504Z,22.60
2023-03-18T13:11:42.206Z,21.02
2023-03-18T13:16:42.913Z,20.05
2023-03-18T13:19:11.984Z,20.63
2023-03-18T13:21:44.930Z,19.88
2023-03-18T13:24:39.840Z,20.38
2023-03-18T13:27:28.355Z,18.80
2023-03-18T13:30:30.438Z,19.80
2023-03-18T13:33:19.191Z,21.42
2023-03-18T13:36:17.413Z,21.02
2023-03-18T13:38:59.714Z,19.08
2023-03-18T13:41:33.036Z,22.23
2023-03-18T13:44:06.647Z,21.25
2023-03-18T13:46:35.095Z,19.52
2023-03-18T13:49:04.144Z,21.60
2023-03-18T13:51:32.194Z,18.77
2023-03-18T13:54:05.758Z,19.38
2023-03-18T13:56:47.386Z,21.58
2023-03-18T13:59:33.126Z,21.40
2023-03-18T14:02:31.182Z,21.20
2023-03-18T14:04:59.710Z,20.75
2023-03-18T14:07:28.647Z,20.08
2023-03-18T14:10:17.684Z,19.08
2023-03-18T14:12:48.427Z,21.02
2023-03-18T14:15:15.878Z,19.33
2023-03-18T14:17:58.543Z,19.92
2023-03-18T14:20:36.116Z,22.02
2023-03-18T14:23:24.240Z,19.73
2023-03-18T14:26:02.593Z,20.45
2023-03-18T14:28:39.462Z,22.35
2023-03-18T14:31:19.548Z,20.80
2023-03-18T14:34:21.114Z,20.65
2023-03-18T14:36:54.471Z,24.90
2023-03-18T14:39:38.155Z,22.05
2023-03-18T14:42:34.506Z,25.38
2023-03-18T14:45:25.821Z,21.23
2023-03-18T14:47:58.140Z,21.67
2023-03-18T14:50:40.437Z,21.58
2023-03-18T14:53:17.596Z,22.13
2023-03-18T14:55:45.511Z,20.52
2023-03-18T14:58:17.862Z,20.83
2023-03-18T15:00:48.569Z,21.33
2023-03-18T15:03:24.893Z,19.88
2023-03-18T15:05:58.079Z,19.80
2023-03-18T15:08:41.116Z,19.45
2023-03-18T15:11:16.557Z,18.70
2023-03-18T15:13:45.114Z,19.77
2023-03-18T15:16:18.274Z,19.48
2023-03-18T15:18:46.373Z,23.15
2023-03-18T15:21:22.486Z,20.08
2023-03-18T15:23:56.649Z,20.55
2023-03-18T15:26:27.107Z,20.52
2023-03-18T15:28:57.847Z,22.63
2023-03-18T15:31:28.193Z,21.35
2023-03-18T15:34:29.934Z,20.85
2023-03-18T15:37:00.956Z,20.83
2023-03-18T15:39:32.239Z,21.88
2023-03-18T15:42:01.139Z,21.75
2023-03-18T15:44:37.600Z,22.23
2023-03-18T15:47:22.453Z,20.85
2023-03-18T15:49:53.374Z,20.52
2023-03-18T15:52:26.959Z,21.02
2023-03-18T15:54:54.430Z,22.95
2023-03-18T15:57:46.310Z,20.85
2023-03-18T16:00:14.454Z,24.15
2023-03-18T16:02:42.028Z,20.80
2023-03-18T16:05:19.929Z,21.77
2023-03-18T16:07:49.901Z,21.83
2023-03-18T16:10:22.390Z,20.63
2023-03-18T16:12:55.093Z,20.45
2023-03-18T16:15:25.336Z,22.10
2023-03-18T16:17:56.027Z,24.67
2023-03-18T16:20:29.054Z,22.95
2023-03-18T16:22:57.142Z,25.58
2023-03-18T16:25:25.918Z,23.58
2023-03-18T16:28:00.745Z,22.40
2023-03-18T16:30:31.097Z,23.23
2023-03-18T16:32:59.303Z,22.45
2023-03-18T16:35:34.443Z,22.75
2023-03-18T16:38:02.446Z,24.60
2023-03-18T16:40:32.554Z,25.38
2023-03-18T16:43:18.142Z,26.90
2023-03-18T16:45:47.455Z,26.77
2023-03-18T16:48:18.543Z,27.95
2023-03-18T16:50:48.444Z,28.92
2023-03-18T16:53:20.299Z,28.40
2023-03-18T16:55:56.541Z,28.33
2023-03-18T16:58:36.550Z,24.70
2023-03-18T17:01:20.477Z,26.42
2023-03-18T17:03:55.261Z,24.80
2023-03-18T17:06:33.579Z,22.98
2023-03-18T17:09:02.459Z,23.90
2023-03-18T17:11:30.000Z,22.08
2023-03-18T17:14:01.855Z,23.35
2023-03-18T17:16:31.937Z,28.83
2023-03-18T17:18:59.605Z,25.85
2023-03-18T17:21:29.013Z,28.42
2023-03-18T17:23:57.133Z,28.75
2023-03-18T17:26:25.735Z,25.40
2023-03-18T17:28:56.666Z,24.92
2023-03-18T17:31:25.466Z,26.95
2023-03-18T17:33:52.949Z,27.77
2023-03-18T17:36:21.001Z,26.77
2023-03-18T17:38:48.836Z,25.90
2023-03-18T17:41:21.606Z,27.42
2023-03-18T17:43:53.410Z,27.98
2023-03-18T17:46:21.282Z,28.08
2023-03-18T17:48:53.032Z,24.90
2023-03-18T17:51:26.808Z,26.27
2023-03-18T17:53:59.171Z,26.83
2023-03-18T17:56:27.964Z,26.27
2023-03-18T17:58:56.557Z,26.50
2023-03-18T18:01:29.385Z,29.98
2023-03-18T18:04:26.452Z,32.20
2023-03-18T18:07:20.699Z,26.58
2023-03-18T18:09:58.060Z,26.88
2023-03-18T18:12:43.071Z,29.13
2023-03-18T18:15:26.750Z,37.00
2023-03-18T18:17:58.183Z,32.95
2023-03-18T18:20:33.694Z,32.20
2023-03-18T18:23:25.013Z,30.40
2023-03-18T18:25:53.118Z,32.78
2023-03-18T18:28:23.014Z,31.92
2023-03-18T18:30:51.403Z,34.15
2023-03-18T18:33:21.994Z,27.90
2023-03-18T18:35:49.527Z,34.92
2023-03-18T18:38:17.075Z,27.52
2023-03-18T18:40:45.081Z,23.10
2023-03-18T18:43:12.645Z,22.95
2023-03-18T18:45:43.828Z,17.02
2023-03-18T18:48:16.523Z,15.07
2023-03-18T18:50:45.593Z,15.23
2023-03-18T18:53:24.907Z,13.35
2023-03-18T18:56:02.629Z,11.93
2023-03-18T18:58:36.802Z,9.50
2023-03-18T19:02:07.990Z,9.65
2023-03-18T19:04:39.855Z,10.55
2023-03-18T19:15:21.568Z,7.28
2023-03-18T19:17:56.203Z,8.48
2023-03-18T19:20:31.675Z,9.65
2023-03-18T19:23:23.008Z,8.05
2023-03-18T19:25:52.124Z,12.25
2023-03-18T19:28:55.130Z,10.88
2023-03-18T19:32:04.595Z,7.68
2023-03-18T19:38:07.361Z,9.95
2023-03-18T19:40:35.737Z,10.55
2023-03-18T19:43:18.400Z,7.38
2023-03-18T19:50:43.691Z,9.68
2023-03-18T19:53:25.026Z,8.20
2023-03-18T19:57:02.963Z,11.52
2023-03-18T19:59:38.202Z,11.98
2023-03-18T20:06:12.712Z,11.35
2023-03-18T20:09:28.663Z,9.20
2023-03-18T20:12:24.879Z,11.65
2023-03-18T20:15:14.897Z,10.35
2023-03-18T20:18:54.354Z,10.70
2023-03-18T20:21:57.810Z,9.23
2023-03-18T20:24:41.363Z,12.63
2023-03-18T20:27:17.771Z,9.85
2023-03-18T20:30:27.784Z,12.27
2023-03-18T20:33:05.985Z,8.88
2023-03-18T20:35:47.612Z,10.13
2023-03-18T20:38:26.705Z,10.43
2023-03-18T20:40:59.145Z,10.32
2023-03-18T20:43:37.177Z,9.48
2023-03-18T20:46:57.542Z,8.80
2023-03-18T20:49:30.509Z,10.18
2023-03-18T20:52:13.068Z,9.43
2023-03-18T21:00:10.821Z,12.23
2023-03-18T21:02:45.168Z,10.30
2023-03-18T21:05:51.711Z,9.57
2023-03-18T21:08:51.990Z,11.50
2023-03-18T22:33:42.095Z,25.42
2023-03-18T23:08:12.001Z,25.30
2023-03-18T23:10:57.068Z,25.00
2023-03-18T23:17:41.690Z,25.30
2023-03-18T23:20:14.069Z,26.13
2023-03-18T23:22:42.186Z,24.30
2023-03-18T23:25:16.593Z,25.85
2023-03-18T23:27:46.991Z,24.17
2023-03-18T23:30:14.801Z,27.33
2023-03-18T23:32:45.417Z,24.63
2023-03-18T23:35:14.756Z,23.90
2023-03-18T23:37:42.585Z,26.58
2023-03-18T23:40:17.711Z,25.00
2023-03-18T23:42:47.905Z,29.40
2023-03-18T23:45:17.946Z,22.98
2023-03-18T23:51:40.555Z,23.85
2023-03-18T23:54:11.079Z,23.98
2023-03-18T23:56:38.705Z,24.95
2023-03-18T23:59:06.381Z,24.58
